Terminal Aerodrome Forecast
Issued by NWS Duluth, MN

Home | Current Version | Previous Version | Text Only | Print | Product List | Glossary On
Versions: 1 2 3 4 5 6 7 8 9 10 11 12 13 14 15
344
FTUS43 KDLH 141731
TAFDLH
TAF
KDLH 141731Z 1418/1518 15008KT 5SM -SN OVC040
      TEMPO 1418/1422 3SM -SN OVC025
     FM142200 16012KT 2SM -SN OVC008
     FM150400 19011KT 3SM -SN OVC012
     FM150800 20009KT 5SM -SN OVC015
     FM151400 23007KT P6SM OVC030=

USA.gov is the U.S. government's official web portal to all federal, state and local government web resources and services.